createdAt,value
2023-02-23T00:00:45.805Z,-1.58
2023-02-23T00:02:50.871Z,-1.65
2023-02-23T00:04:52.956Z,-1.55
2023-02-23T00:06:54.900Z,-1.69
2023-02-23T00:09:01.400Z,-1.75
2023-02-23T00:11:05.932Z,-1.66
2023-02-23T00:13:07.876Z,-1.78
2023-02-23T00:15:10.105Z,-1.78
2023-02-23T00:17:15.289Z,-2.00
2023-02-23T00:19:17.835Z,-1.87
2023-02-23T00:21:24.297Z,-1.95
2023-02-23T00:23:27.734Z,-1.76
2023-02-23T00:25:31.351Z,-1.76
2023-02-23T00:27:33.250Z,-1.87
2023-02-23T00:29:39.953Z,-1.92
2023-02-23T00:31:44.557Z,-1.96
2023-02-23T00:33:47.436Z,-2.13
2023-02-23T00:35:50.235Z,-2.20
2023-02-23T00:37:53.378Z,-2.20
2023-02-23T00:39:56.862Z,-2.15
2023-02-23T00:42:03.700Z,-2.34
2023-02-23T00:44:05.631Z,-2.31
2023-02-23T00:46:08.474Z,-2.23
2023-02-23T00:48:11.054Z,-2.48
2023-02-23T00:50:15.095Z,-2.33
2023-02-23T00:52:17.128Z,-2.44
2023-02-23T00:54:21.023Z,-2.47
2023-02-23T00:56:23.370Z,-2.48
2023-02-23T00:58:27.443Z,-2.45
2023-02-23T01:00:29.288Z,-2.45
2023-02-23T01:02:31.213Z,-2.32
2023-02-23T01:04:33.183Z,-2.50
2023-02-23T01:06:37.996Z,-2.48
2023-02-23T01:08:41.193Z,-2.41
2023-02-23T01:10:43.535Z,-2.39
2023-02-23T01:12:52.394Z,-2.57
2023-02-23T01:14:55.376Z,-2.61
2023-02-23T01:16:57.212Z,-2.45
2023-02-23T01:19:01.415Z,-2.60
2023-02-23T01:21:05.651Z,-2.70
2023-02-23T01:23:08.082Z,-2.56
2023-02-23T01:25:10.290Z,-2.65
2023-02-23T01:27:12.101Z,-2.61
2023-02-23T01:29:19.809Z,-2.55
2023-02-23T01:31:23.091Z,-2.72
2023-02-23T01:33:25.926Z,-2.81
2023-02-23T01:35:27.797Z,-2.57
2023-02-23T01:37:29.614Z,-2.81
2023-02-23T01:39:32.885Z,-2.72
2023-02-23T01:41:35.623Z,-2.81
2023-02-23T01:43:55.958Z,-2.76
2023-02-23T01:46:00.790Z,-2.80
2023-02-23T01:48:04.808Z,-2.74
2023-02-23T01:50:06.754Z,-2.85
2023-02-23T01:52:11.704Z,-2.79
2023-02-23T01:54:16.199Z,-2.93
2023-02-23T01:56:21.637Z,-2.92
2023-02-23T01:58:24.606Z,-2.90
2023-02-23T02:00:27.382Z,-2.79
2023-02-23T02:02:34.017Z,-2.89
2023-02-23T02:04:44.925Z,-2.84
2023-02-23T02:06:48.819Z,-2.95
2023-02-23T02:08:55.085Z,-2.80
2023-02-23T02:10:57.986Z,-2.92
2023-02-23T02:12:59.809Z,-2.79
2023-02-23T02:15:04.773Z,-2.87
2023-02-23T02:17:06.561Z,-2.96
2023-02-23T02:19:09.254Z,-3.06
2023-02-23T02:21:23.328Z,-3.02
2023-02-23T02:23:31.606Z,-3.03
2023-02-23T02:25:41.584Z,-3.01
2023-02-23T02:27:49.413Z,-3.08
2023-02-23T02:30:10.568Z,-3.10
2023-02-23T02:32:30.625Z,-3.05
2023-02-23T02:34:37.114Z,-3.06
2023-02-23T02:36:57.588Z,-3.03
2023-02-23T02:39:00.506Z,-3.07
2023-02-23T02:41:05.759Z,-3.15
2023-02-23T02:43:14.587Z,-3.06
2023-02-23T02:45:22.610Z,-3.12
2023-02-23T02:47:30.913Z,-3.03
2023-02-23T02:49:45.579Z,-3.06
2023-02-23T02:51:52.970Z,-3.20
2023-02-23T02:53:57.934Z,-3.11
2023-02-23T02:56:01.921Z,-3.09
2023-02-23T02:58:08.154Z,-3.12
2023-02-23T03:00:33.633Z,-3.03
2023-02-23T03:02:58.266Z,-2.94
2023-02-23T03:05:18.460Z,-2.97
2023-02-23T03:08:01.937Z,-2.91
2023-02-23T03:10:33.421Z,-2.91
2023-02-23T03:12:59.105Z,-2.96
2023-02-23T03:15:22.541Z,-2.90
2023-02-23T03:18:01.978Z,-2.94
2023-02-23T03:20:47.575Z,-2.77
2023-02-23T03:23:15.128Z,-2.80
2023-02-23T03:25:36.379Z,-2.74
2023-02-23T03:28:10.964Z,-2.62
2023-02-23T03:30:42.393Z,-2.76
2023-02-23T03:33:11.430Z,-2.72
2023-02-23T03:36:01.012Z,-2.65
2023-02-23T03:38:25.010Z,-2.68
2023-02-23T03:40:48.105Z,-2.61
2023-02-23T03:43:10.259Z,-2.59
2023-02-23T03:45:33.303Z,-2.58
2023-02-23T03:47:55.958Z,-2.57
2023-02-23T03:50:19.762Z,-2.46
2023-02-23T03:52:44.842Z,-2.57
2023-02-23T03:55:08.475Z,-2.55
2023-02-23T03:57:32.919Z,-2.59
2023-02-23T03:59:57.416Z,-2.55
2023-02-23T04:02:18.902Z,-2.46
2023-02-23T04:04:40.876Z,-2.51
2023-02-23T04:07:03.422Z,-2.49
2023-02-23T04:09:26.025Z,-2.42
2023-02-23T04:11:50.395Z,-2.34
2023-02-23T04:13:54.675Z,-2.35
2023-02-23T04:16:05.423Z,-2.32
2023-02-23T04:18:08.361Z,-2.29
2023-02-23T04:20:12.410Z,-2.27
2023-02-23T04:22:14.153Z,-2.31
2023-02-23T04:24:16.005Z,-2.24
2023-02-23T04:26:17.948Z,-2.25
2023-02-23T04:28:20.796Z,-2.30
2023-02-23T04:30:28.805Z,-2.20
2023-02-23T04:32:31.128Z,-2.18
2023-02-23T04:34:32.938Z,-2.16
2023-02-23T04:36:34.907Z,-2.21
2023-02-23T04:38:36.817Z,-2.09
2023-02-23T04:40:38.780Z,-2.09
2023-02-23T04:42:40.951Z,-2.11
2023-02-23T04:44:42.924Z,-2.11
2023-02-23T04:46:44.958Z,-2.06
2023-02-23T04:48:47.970Z,-2.07
2023-02-23T04:50:52.160Z,-2.00
2023-02-23T04:52:54.061Z,-2.02
2023-02-23T04:54:55.808Z,-2.05
2023-02-23T04:56:57.615Z,-1.98
2023-02-23T04:58:59.363Z,-2.06
2023-02-23T05:01:10.049Z,-1.98
2023-02-23T05:03:12.472Z,-2.03
2023-02-23T05:05:15.513Z,-1.93
2023-02-23T05:07:17.851Z,-2.01
2023-02-23T05:09:19.830Z,-2.00
2023-02-23T05:11:21.885Z,-1.94
2023-02-23T05:13:23.857Z,-1.89
2023-02-23T05:15:25.898Z,-1.97
2023-02-23T05:17:27.997Z,-1.89
2023-02-23T05:19:30.111Z,-1.88
2023-02-23T05:21:33.218Z,-1.89
2023-02-23T05:23:36.814Z,-1.82
2023-02-23T05:25:39.896Z,-1.88
2023-02-23T05:27:41.902Z,-1.75
2023-02-23T05:29:44.692Z,-1.79
2023-02-23T05:31:48.799Z,-1.84
2023-02-23T05:33:52.944Z,-1.75
2023-02-23T05:35:54.879Z,-1.81
2023-02-23T05:37:56.893Z,-1.73
2023-02-23T05:39:58.809Z,-1.71
2023-02-23T05:42:00.728Z,-1.77
2023-02-23T05:44:03.841Z,-1.60
2023-02-23T05:46:13.294Z,-1.67
2023-02-23T05:48:20.096Z,-1.63
2023-02-23T05:50:23.015Z,-1.63
2023-02-23T05:52:25.272Z,-1.69
2023-02-23T05:54:27.521Z,-1.63
2023-02-23T05:56:29.630Z,-1.66
2023-02-23T05:58:35.247Z,-1.63
2023-02-23T06:00:38.164Z,-1.59
2023-02-23T06:02:42.015Z,-1.53
2023-02-23T06:04:45.224Z,-1.61
2023-02-23T06:06:47.238Z,-1.55
2023-02-23T06:08:56.317Z,-1.51
2023-02-23T06:10:58.289Z,-1.56
2023-02-23T06:13:00.320Z,-1.50
2023-02-23T06:15:02.366Z,-1.46
2023-02-23T06:17:05.942Z,-1.49
2023-02-23T06:19:08.244Z,-1.50
2023-02-23T06:21:10.440Z,-1.47
2023-02-23T06:23:12.575Z,-1.39
2023-02-23T06:25:15.695Z,-1.37
2023-02-23T06:27:18.838Z,-1.35
2023-02-23T06:29:23.565Z,-1.34
2023-02-23T06:31:25.621Z,-1.35
2023-02-23T06:33:27.905Z,-1.31
2023-02-23T06:35:36.093Z,-1.31
2023-02-23T06:37:38.132Z,-1.29
2023-02-23T06:39:41.201Z,-1.23
2023-02-23T06:41:45.146Z,-1.17
2023-02-23T06:43:52.214Z,-1.17
2023-02-23T06:46:01.210Z,-1.20
2023-02-23T06:48:03.280Z,-1.14
2023-02-23T06:50:10.243Z,-1.17
2023-02-23T06:52:14.194Z,-1.17
2023-02-23T06:54:19.103Z,-1.15
2023-02-23T06:56:26.235Z,-1.03
2023-02-23T06:58:34.839Z,-1.08
2023-02-23T07:00:37.704Z,-1.05
2023-02-23T07:02:40.597Z,-1.05
2023-02-23T07:04:43.464Z,-0.97
2023-02-23T07:06:51.247Z,-0.96
2023-02-23T07:08:53.070Z,-0.93
2023-02-23T07:11:08.320Z,-0.88
2023-02-23T07:13:16.726Z,-0.82
2023-02-23T07:15:21.560Z,-0.79
2023-02-23T07:17:23.608Z,-0.80
2023-02-23T07:19:26.947Z,-0.67
2023-02-23T07:21:28.780Z,-0.48
2023-02-23T07:23:31.708Z,-0.29
2023-02-23T07:25:39.439Z,-0.04
2023-02-23T07:27:42.632Z,0.12
2023-02-23T07:29:44.368Z,0.35
2023-02-23T07:31:50.269Z,0.32
2023-02-23T07:33:54.953Z,0.55
2023-02-23T07:35:57.071Z,0.71
2023-02-23T07:38:00.119Z,0.60
2023-02-23T07:40:02.172Z,0.50
2023-02-23T07:42:06.073Z,0.74
2023-02-23T07:44:08.000Z,0.63
2023-02-23T07:46:09.929Z,0.51
2023-02-23T07:48:18.413Z,0.49
2023-02-23T07:50:22.255Z,0.50
2023-02-23T07:52:41.191Z,0.67
2023-02-23T07:54:43.140Z,0.55
2023-02-23T07:56:57.250Z,0.74
2023-02-23T07:59:06.850Z,0.58
2023-02-23T08:01:16.997Z,0.75
2023-02-23T08:03:49.890Z,0.83
2023-02-23T08:05:52.009Z,1.11
2023-02-23T08:08:00.593Z,1.45
2023-02-23T08:10:02.873Z,1.26
2023-02-23T08:12:05.756Z,1.20
2023-02-23T08:14:07.845Z,1.34
2023-02-23T08:16:21.064Z,1.52
2023-02-23T08:18:24.556Z,1.66
2023-02-23T08:20:27.955Z,2.48
2023-02-23T08:22:37.847Z,2.10
2023-02-23T08:24:47.679Z,1.94
2023-02-23T08:26:50.678Z,2.27
2023-02-23T08:28:54.541Z,2.10
2023-02-23T08:30:59.647Z,2.43
2023-02-23T08:33:01.959Z,2.17
2023-02-23T08:35:04.153Z,2.00
2023-02-23T08:37:06.860Z,2.18
2023-02-23T08:39:10.274Z,2.21
2023-02-23T08:41:12.297Z,2.36
2023-02-23T08:43:16.309Z,2.30
2023-02-23T08:45:26.485Z,2.12
2023-02-23T08:47:33.459Z,2.01
2023-02-23T08:49:41.770Z,2.03
2023-02-23T08:51:50.727Z,1.95
2023-02-23T08:53:52.751Z,2.25
2023-02-23T08:56:04.014Z,2.34
2023-02-23T08:58:10.944Z,2.15
2023-02-23T09:00:17.093Z,2.23
2023-02-23T09:02:29.239Z,2.43
2023-02-23T09:04:37.989Z,2.50
2023-02-23T09:06:41.690Z,2.39
2023-02-23T09:08:46.492Z,2.51
2023-02-23T09:10:54.341Z,2.69
2023-02-23T09:12:56.289Z,2.49
2023-02-23T09:14:58.252Z,2.57
2023-02-23T09:17:00.249Z,2.53
2023-02-23T09:19:03.422Z,2.56
2023-02-23T09:21:08.815Z,2.58
2023-02-23T09:23:13.234Z,2.60
2023-02-23T09:25:23.166Z,2.70
2023-02-23T09:27:26.253Z,2.75
2023-02-23T09:29:28.127Z,2.76
2023-02-23T09:31:32.188Z,2.77
2023-02-23T09:33:36.553Z,3.14
2023-02-23T09:35:40.270Z,2.97
2023-02-23T09:37:42.054Z,2.97
2023-02-23T09:39:45.844Z,3.14
2023-02-23T09:42:20.434Z,3.07
2023-02-23T09:44:27.086Z,3.18
2023-02-23T09:47:07.354Z,3.14
2023-02-23T09:49:16.736Z,3.35
2023-02-23T09:51:22.940Z,3.35
2023-02-23T09:53:33.931Z,3.42
2023-02-23T09:55:40.038Z,3.59
2023-02-23T09:57:44.902Z,3.90
2023-02-23T09:59:53.698Z,3.80
2023-02-23T10:01:59.227Z,3.77
2023-02-23T10:04:06.073Z,3.86
2023-02-23T10:06:17.336Z,4.11
2023-02-23T10:08:37.528Z,4.24
2023-02-23T10:10:43.373Z,4.55
2023-02-23T10:13:04.372Z,4.64
2023-02-23T10:15:13.677Z,4.66
2023-02-23T10:17:57.476Z,4.64
2023-02-23T10:20:18.591Z,4.30
2023-02-23T10:22:21.960Z,4.40
2023-02-23T10:24:35.651Z,4.57
2023-02-23T10:26:44.485Z,4.77
2023-02-23T10:28:49.151Z,4.64
2023-02-23T10:30:53.138Z,4.67
2023-02-23T10:33:03.907Z,4.33
2023-02-23T10:35:10.975Z,4.26
2023-02-23T10:37:16.387Z,4.40
2023-02-23T10:39:18.422Z,4.89
2023-02-23T10:41:20.478Z,4.55
2023-02-23T10:43:22.549Z,4.54
2023-02-23T10:45:25.827Z,4.49
2023-02-23T10:47:29.837Z,4.57
2023-02-23T10:49:45.239Z,4.54
2023-02-23T10:51:47.120Z,4.40
2023-02-23T10:53:49.205Z,4.37
2023-02-23T10:56:05.792Z,4.30
2023-02-23T10:58:17.163Z,4.45
2023-02-23T11:00:27.953Z,4.37
2023-02-23T11:02:31.114Z,4.35
2023-02-23T11:04:35.189Z,4.39
2023-02-23T11:06:43.215Z,4.53
2023-02-23T11:08:45.020Z,4.39
2023-02-23T11:10:59.085Z,4.25
2023-02-23T11:13:00.820Z,4.54
2023-02-23T11:15:20.883Z,4.69
2023-02-23T11:17:40.597Z,4.62
2023-02-23T11:19:42.438Z,4.48
2023-02-23T11:21:50.270Z,4.69
2023-02-23T11:23:54.963Z,4.86
2023-02-23T11:26:02.582Z,4.54
2023-02-23T11:28:05.039Z,4.60
2023-02-23T11:30:07.940Z,4.52
2023-02-23T11:32:17.622Z,4.56
2023-02-23T11:34:21.753Z,4.46
2023-02-23T11:36:30.802Z,4.52
2023-02-23T11:38:33.510Z,4.48
2023-02-23T11:40:36.247Z,4.37
2023-02-23T11:42:50.896Z,4.38
2023-02-23T11:44:53.640Z,4.37
2023-02-23T11:46:58.669Z,4.42
2023-02-23T11:49:01.891Z,4.40
2023-02-23T11:51:05.421Z,4.35
2023-02-23T11:53:19.864Z,4.51
2023-02-23T11:55:22.157Z,4.41
2023-02-23T11:57:32.305Z,4.48
2023-02-23T11:59:37.718Z,4.53
2023-02-23T12:01:47.295Z,4.59
2023-02-23T12:03:57.399Z,4.75
2023-02-23T12:05:59.622Z,4.62
2023-02-23T12:08:13.083Z,4.64
2023-02-23T12:10:19.663Z,4.62
2023-02-23T12:12:23.602Z,4.80
2023-02-23T12:14:29.723Z,4.97
2023-02-23T12:16:44.187Z,4.82
2023-02-23T12:18:48.044Z,4.87
2023-02-23T12:20:54.550Z,4.77
2023-02-23T12:23:18.740Z,4.84
2023-02-23T12:25:40.200Z,4.92
2023-02-23T12:27:45.576Z,4.97
2023-02-23T12:29:55.982Z,4.93
2023-02-23T12:32:03.201Z,4.82
2023-02-23T12:34:11.490Z,4.95
2023-02-23T12:36:21.022Z,4.90
2023-02-23T12:38:34.410Z,4.91
2023-02-23T12:40:39.221Z,4.88
2023-02-23T12:42:44.701Z,4.98
2023-02-23T12:44:54.801Z,4.98
2023-02-23T12:47:03.773Z,5.03
2023-02-23T12:49:17.254Z,5.04
2023-02-23T12:51:31.225Z,5.12
2023-02-23T12:53:36.063Z,5.06
2023-02-23T12:56:00.082Z,5.00
2023-02-23T12:58:12.018Z,5.01
2023-02-23T13:00:32.333Z,5.10
2023-02-23T13:02:47.678Z,5.12
2023-02-23T13:04:56.802Z,5.11
2023-02-23T13:07:03.720Z,5.12
2023-02-23T13:09:29.306Z,5.03
2023-02-23T13:11:32.104Z,5.03
2023-02-23T13:13:53.598Z,5.01
2023-02-23T13:16:17.562Z,5.13
2023-02-23T13:18:38.163Z,5.15
2023-02-23T13:21:25.110Z,5.18
2023-02-23T13:24:01.834Z,5.13
2023-02-23T13:26:44.602Z,5.16
2023-02-23T13:29:19.379Z,5.22
2023-02-23T13:31:28.604Z,5.27
2023-02-23T13:33:43.884Z,5.28
2023-02-23T13:35:46.398Z,5.19
2023-02-23T13:38:09.821Z,5.18
2023-02-23T13:40:27.009Z,5.15
2023-02-23T13:42:41.095Z,5.20
2023-02-23T13:44:55.946Z,5.24
2023-02-23T13:47:14.498Z,5.18
2023-02-23T13:49:37.855Z,5.16
2023-02-23T13:51:55.160Z,5.18
2023-02-23T13:54:01.882Z,5.14
2023-02-23T13:56:07.007Z,5.24
2023-02-23T13:58:16.163Z,5.32
2023-02-23T14:00:23.088Z,5.37
2023-02-23T14:02:36.204Z,5.40
2023-02-23T14:04:42.638Z,5.40
2023-02-23T14:07:10.663Z,5.39
2023-02-23T14:09:18.702Z,5.36
2023-02-23T14:11:39.175Z,5.37
2023-02-23T14:13:41.949Z,5.35
2023-02-23T14:15:48.440Z,5.39
2023-02-23T14:17:58.128Z,5.37
2023-02-23T14:20:07.229Z,5.43
2023-02-23T14:22:10.728Z,5.43
2023-02-23T14:24:12.545Z,5.38
2023-02-23T14:26:35.323Z,5.38
2023-02-23T14:28:39.333Z,5.38
2023-02-23T14:30:51.473Z,5.38
2023-02-23T14:32:54.056Z,5.37
2023-02-23T14:34:57.952Z,5.34
2023-02-23T14:37:06.480Z,5.33
2023-02-23T14:39:25.163Z,5.27
2023-02-23T14:42:03.096Z,5.29
2023-02-23T14:44:20.162Z,5.25
2023-02-23T14:46:30.997Z,5.26
2023-02-23T14:48:39.457Z,5.25
2023-02-23T14:50:41.866Z,5.19
2023-02-23T14:52:43.845Z,5.21
2023-02-23T14:54:46.067Z,5.23
2023-02-23T14:56:51.058Z,5.14
2023-02-23T14:58:55.410Z,5.23
2023-02-23T15:00:59.442Z,5.19
2023-02-23T15:03:17.327Z,5.17
2023-02-23T15:05:24.908Z,5.16
2023-02-23T15:07:31.964Z,5.17
2023-02-23T15:09:42.118Z,5.14
2023-02-23T15:11:48.874Z,5.08
2023-02-23T15:13:52.440Z,5.08
2023-02-23T15:15:55.378Z,5.11
2023-02-23T15:17:59.694Z,5.00
2023-02-23T15:20:15.931Z,4.97
2023-02-23T15:22:25.387Z,4.97
2023-02-23T15:24:46.252Z,4.97
2023-02-23T15:26:48.161Z,4.91
2023-02-23T15:28:51.382Z,4.78
2023-02-23T15:30:57.455Z,4.79
2023-02-23T15:33:16.694Z,4.70
2023-02-23T15:35:18.738Z,4.68
2023-02-23T15:37:34.277Z,4.79
2023-02-23T15:39:40.310Z,4.73
2023-02-23T15:41:48.654Z,4.59
2023-02-23T15:43:51.206Z,4.53
2023-02-23T15:45:57.786Z,4.37
2023-02-23T15:48:05.928Z,4.53
2023-02-23T15:50:34.926Z,4.45
2023-02-23T15:52:45.268Z,4.46
2023-02-23T15:55:00.503Z,4.31
2023-02-23T15:57:08.473Z,4.30
2023-02-23T15:59:16.683Z,4.33
2023-02-23T16:01:26.089Z,4.27
2023-02-23T16:03:32.307Z,4.16
2023-02-23T16:05:47.065Z,4.18
2023-02-23T16:07:49.213Z,4.26
2023-02-23T16:09:54.498Z,4.18
2023-02-23T16:11:58.655Z,4.09
2023-02-23T16:14:00.501Z,3.95
2023-02-23T16:16:09.170Z,3.78
2023-02-23T16:18:16.835Z,3.80
2023-02-23T16:20:21.472Z,3.71
2023-02-23T16:22:26.151Z,3.72
2023-02-23T16:24:30.004Z,3.59
2023-02-23T16:26:54.114Z,3.50
2023-02-23T16:29:00.441Z,3.67
2023-02-23T16:31:04.256Z,3.61
2023-02-23T16:33:20.139Z,3.59
2023-02-23T16:35:22.556Z,3.59
2023-02-23T16:37:29.588Z,3.46
2023-02-23T16:39:34.526Z,3.41
2023-02-23T16:41:47.904Z,3.40
2023-02-23T16:43:53.076Z,3.26
2023-02-23T16:45:55.077Z,3.31
2023-02-23T16:48:02.429Z,3.26
2023-02-23T16:50:20.593Z,3.28
2023-02-23T16:52:24.446Z,3.23
2023-02-23T16:54:31.385Z,3.16
2023-02-23T16:56:36.415Z,3.21
2023-02-23T16:58:40.237Z,3.31
2023-02-23T17:00:43.890Z,3.15
2023-02-23T17:02:45.985Z,3.02
2023-02-23T17:04:51.986Z,3.06
2023-02-23T17:06:58.428Z,3.15
2023-02-23T17:09:01.761Z,3.24
2023-02-23T17:11:05.814Z,3.35
2023-02-23T17:13:17.331Z,3.28
2023-02-23T17:15:22.277Z,3.34
2023-02-23T17:17:24.897Z,3.35
2023-02-23T17:19:27.584Z,3.37
2023-02-23T17:21:36.839Z,3.45
2023-02-23T17:23:51.268Z,3.22
2023-02-23T17:26:02.121Z,3.40
2023-02-23T17:28:08.077Z,3.39
2023-02-23T17:30:18.529Z,3.38
2023-02-23T17:32:24.736Z,3.33
2023-02-23T17:34:28.372Z,3.37
2023-02-23T17:36:31.484Z,3.40
2023-02-23T17:38:37.476Z,3.28
2023-02-23T17:40:41.689Z,3.48
2023-02-23T17:42:44.933Z,3.34
2023-02-23T17:44:47.764Z,3.48
2023-02-23T17:46:50.544Z,3.45
2023-02-23T17:48:55.108Z,3.42
2023-02-23T17:50:59.360Z,3.36
2023-02-23T17:53:01.577Z,3.40
2023-02-23T17:55:05.477Z,3.34
2023-02-23T17:57:08.407Z,3.44
2023-02-23T17:59:11.214Z,3.38
2023-02-23T18:01:14.181Z,3.33
2023-02-23T18:03:17.354Z,3.26
2023-02-23T18:05:20.524Z,3.25
2023-02-23T18:07:23.643Z,3.15
2023-02-23T18:09:28.119Z,3.24
2023-02-23T18:11:32.144Z,3.29
2023-02-23T18:13:35.117Z,3.21
2023-02-23T18:15:38.106Z,3.34
2023-02-23T18:17:41.031Z,3.15
2023-02-23T18:19:47.930Z,3.24
2023-02-23T18:21:51.085Z,3.15
2023-02-23T18:23:53.950Z,3.21
2023-02-23T18:26:05.699Z,3.16
2023-02-23T18:28:12.741Z,3.12
2023-02-23T18:30:19.086Z,3.02
2023-02-23T18:32:23.127Z,3.09
2023-02-23T18:34:27.010Z,3.11
2023-02-23T18:36:37.906Z,3.02
2023-02-23T18:38:40.893Z,2.96
2023-02-23T18:40:43.122Z,3.07
2023-02-23T18:42:45.746Z,3.12
2023-02-23T18:44:48.341Z,3.06
2023-02-23T18:46:51.581Z,3.14
2023-02-23T18:48:55.239Z,2.98
2023-02-23T18:50:59.423Z,2.93
2023-02-23T18:53:05.774Z,2.81
2023-02-23T18:55:09.252Z,3.04
2023-02-23T18:57:14.000Z,2.99
2023-02-23T18:59:16.951Z,2.90
2023-02-23T19:01:24.496Z,2.87
2023-02-23T19:03:27.666Z,2.87
2023-02-23T19:05:31.716Z,2.88
2023-02-23T19:07:34.217Z,2.73
2023-02-23T19:09:42.713Z,2.67
2023-02-23T19:11:46.326Z,2.62
2023-02-23T19:13:50.675Z,2.57
2023-02-23T19:15:54.766Z,2.57
2023-02-23T19:17:59.825Z,2.45
2023-02-23T19:20:02.977Z,2.48
2023-02-23T19:22:07.311Z,2.52
2023-02-23T19:24:10.029Z,2.46
2023-02-23T19:26:13.537Z,2.41
2023-02-23T19:28:16.254Z,2.39
2023-02-23T19:30:19.528Z,2.50
2023-02-23T19:32:22.367Z,2.43
2023-02-23T19:34:26.027Z,2.44
2023-02-23T19:36:32.484Z,2.44
2023-02-23T19:38:36.459Z,2.40
2023-02-23T19:40:43.310Z,2.33
2023-02-23T19:42:50.717Z,2.29
2023-02-23T19:44:53.752Z,2.37
2023-02-23T19:46:57.746Z,2.22
2023-02-23T19:49:00.287Z,2.29
2023-02-23T19:51:13.850Z,2.25
2023-02-23T19:55:35.796Z,2.29
2023-02-23T20:00:25.204Z,2.26
2023-02-23T20:06:53.374Z,2.13
2023-02-23T20:07:55.350Z,2.10
2023-02-23T20:08:11.983Z,2.15
2023-02-23T20:08:27.978Z,2.14
2023-02-23T20:08:43.960Z,2.12
2023-02-23T20:08:59.097Z,2.06
2023-02-23T20:09:14.567Z,2.02
2023-02-23T20:09:29.406Z,2.09
2023-02-23T20:09:45.558Z,2.12
2023-02-23T20:11:11.385Z,2.17
2023-02-23T20:11:25.838Z,2.17
2023-02-23T20:11:41.251Z,2.11
2023-02-23T20:11:58.740Z,2.02
2023-02-23T20:12:13.936Z,1.99
2023-02-23T20:12:31.647Z,1.97
2023-02-23T20:12:47.389Z,2.04
2023-02-23T20:13:02.923Z,2.05
2023-02-23T20:13:18.700Z,2.02
2023-02-23T20:13:33.886Z,2.00
2023-02-23T20:15:51.137Z,2.04
2023-02-23T20:17:55.299Z,1.96
2023-02-23T20:19:58.869Z,2.02
2023-02-23T20:22:02.351Z,1.91
2023-02-23T20:24:06.432Z,1.92
2023-02-23T20:26:13.974Z,1.91
2023-02-23T20:28:18.488Z,1.81
2023-02-23T20:30:22.754Z,1.81
2023-02-23T20:32:25.871Z,1.71
2023-02-23T20:34:31.565Z,1.77
2023-02-23T20:36:36.404Z,1.76
2023-02-23T20:38:39.840Z,1.77
2023-02-23T20:40:42.712Z,1.88
2023-02-23T20:42:48.631Z,1.64
2023-02-23T20:44:51.564Z,1.68
2023-02-23T20:46:54.715Z,1.70
2023-02-23T20:49:03.570Z,1.61
2023-02-23T20:51:09.290Z,1.64
2023-02-23T20:53:13.206Z,1.86
2023-02-23T20:55:29.264Z,1.74
2023-02-23T20:57:33.862Z,1.78
2023-02-23T20:59:37.211Z,1.71
2023-02-23T21:01:41.544Z,1.63
2023-02-23T21:03:44.488Z,1.57
2023-02-23T21:05:49.466Z,1.41
2023-02-23T21:07:53.633Z,1.51
2023-02-23T21:09:56.067Z,1.42
2023-02-23T21:11:58.762Z,1.57
2023-02-23T21:14:01.426Z,1.42
2023-02-23T21:16:04.313Z,1.45
2023-02-23T21:18:12.477Z,1.47
2023-02-23T21:20:15.908Z,1.32
2023-02-23T21:22:19.366Z,1.42
2023-02-23T21:24:26.368Z,1.37
2023-02-23T21:26:30.875Z,1.50
2023-02-23T21:28:33.886Z,1.32
2023-02-23T21:30:37.398Z,1.51
2023-02-23T21:32:42.690Z,1.40
2023-02-23T21:34:46.127Z,1.36
2023-02-23T21:36:50.517Z,1.41
2023-02-23T21:38:52.958Z,1.47
2023-02-23T21:40:55.287Z,1.53
2023-02-23T21:42:58.767Z,1.45
2023-02-23T21:45:01.601Z,1.36
2023-02-23T21:47:08.950Z,1.48
2023-02-23T21:49:11.490Z,1.47
2023-02-23T21:51:15.863Z,1.50
2023-02-23T21:53:18.680Z,1.30
2023-02-23T21:55:22.127Z,1.46
2023-02-23T21:57:28.556Z,1.55
2023-02-23T21:59:31.409Z,1.37
2023-02-23T22:01:35.669Z,1.44
2023-02-23T22:03:37.788Z,1.42
2023-02-23T22:05:40.444Z,1.41
2023-02-23T22:07:47.586Z,1.46
2023-02-23T22:09:55.625Z,1.44
2023-02-23T22:11:58.500Z,1.44
2023-02-23T22:14:00.774Z,1.34
2023-02-23T22:16:03.691Z,1.55
2023-02-23T22:18:07.346Z,1.56
2023-02-23T22:20:12.309Z,1.52
2023-02-23T22:22:14.283Z,1.57
2023-02-23T22:24:17.109Z,1.68
2023-02-23T22:26:19.146Z,1.57
2023-02-23T22:28:21.504Z,1.60
2023-02-23T22:30:23.590Z,1.72
2023-02-23T22:32:27.432Z,1.79
2023-02-23T22:34:29.519Z,1.84
2023-02-23T22:36:31.457Z,1.80
2023-02-23T22:38:34.825Z,1.84
2023-02-23T22:40:42.342Z,1.85
2023-02-23T22:42:48.682Z,1.86
2023-02-23T22:44:51.415Z,1.80
2023-02-23T22:46:53.542Z,1.85
2023-02-23T22:48:55.621Z,1.97
2023-02-23T22:50:58.262Z,1.89
2023-02-23T22:53:01.689Z,2.01
2023-02-23T22:55:04.176Z,1.99
2023-02-23T22:57:06.801Z,2.07
2023-02-23T22:59:11.199Z,2.09
2023-02-23T23:01:13.235Z,2.08
2023-02-23T23:03:16.154Z,2.19
2023-02-23T23:05:18.432Z,2.20
2023-02-23T23:07:20.889Z,2.26
2023-02-23T23:09:22.876Z,2.26
2023-02-23T23:11:27.243Z,2.32
2023-02-23T23:13:32.055Z,2.44
2023-02-23T23:15:34.074Z,2.50
2023-02-23T23:17:36.043Z,2.40
2023-02-23T23:19:41.353Z,2.52
2023-02-23T23:21:46.302Z,2.50
2023-02-23T23:23:50.605Z,2.65
2023-02-23T23:25:52.610Z,2.63
2023-02-23T23:27:55.881Z,2.62
2023-02-23T23:29:58.621Z,2.62
2023-02-23T23:32:02.651Z,2.60
2023-02-23T23:34:09.648Z,2.60
2023-02-23T23:36:12.579Z,2.73
2023-02-23T23:38:14.676Z,2.73
2023-02-23T23:40:16.792Z,2.72
2023-02-23T23:42:20.462Z,2.73
2023-02-23T23:44:29.631Z,2.80
2023-02-23T23:46:38.215Z,2.79
2023-02-23T23:48:40.113Z,2.73
2023-02-23T23:50:42.541Z,2.80
2023-02-23T23:52:45.957Z,2.77
2023-02-23T23:54:48.455Z,2.87
2023-02-23T23:56:50.883Z,2.87
2023-02-23T23:58:57.145Z,2.82
